Time;durP1;ratioP1;P1;durP2;ratioP2;P2;SDS_P1;SDS_P2;PMS_P1;PMS_P2;Temp;Humidity;BMP_temperature;BMP_pressure;BME280_temperature;BME280_humidity;BME280_pressure;Samples;Min_cycle;Max_cycle;Signal;HPM_P1;HPM_P2
2022/03/12 00:00:11;;;;;;;21.77;7.60;;;5.90;56.90;;;;;;5028206;28;20040;-69
2022/03/12 00:02:37;;;;;;;17.40;7.07;;;5.80;56.40;;;;;;5067158;28;20111;-69
2022/03/12 00:05:09;;;;;;;13.25;7.22;;;5.80;57.00;;;;;;5047656;28;20119;-69
2022/03/12 00:07:38;;;;;;;12.18;7.00;;;5.80;57.10;;;;;;5032162;28;20079;-71
2022/03/12 00:10:05;;;;;;;14.68;7.45;;;5.80;56.90;;;;;;5044617;28;20444;-70
2022/03/12 00:12:34;;;;;;;15.38;8.02;;;5.70;57.70;;;;;;5032772;28;20457;-70
2022/03/12 00:15:09;;;;;;;14.02;7.43;;;5.80;56.70;;;;;;5045070;28;20043;-69
2022/03/12 00:17:36;;;;;;;12.15;7.03;;;5.90;56.40;;;;;;5050029;28;20037;-72
2022/03/12 00:20:12;;;;;;;11.30;7.13;;;5.80;56.70;;;;;;5046163;28;20048;-69
2022/03/12 00:22:41;;;;;;;13.13;7.30;;;5.80;57.00;;;;;;5065872;28;20428;-69
2022/03/12 00:25:10;;;;;;;16.67;7.80;;;5.80;56.80;;;;;;5049636;28;20037;-69
2022/03/12 00:27:39;;;;;;;14.80;7.25;;;5.70;56.70;;;;;;5065161;28;20350;-69
2022/03/12 00:30:06;;;;;;;12.63;7.15;;;5.70;56.70;;;;;;5030252;28;20045;-69
2022/03/12 00:32:35;;;;;;;13.98;6.90;;;5.70;57.00;;;;;;5032657;28;20049;-69
2022/03/12 00:35:02;;;;;;;14.50;7.55;;;5.80;57.20;;;;;;5031378;28;20037;-69
2022/03/12 00:37:28;;;;;;;15.73;6.88;;;5.70;57.40;;;;;;5043168;28;20052;-69
2022/03/12 00:39:55;;;;;;;15.32;7.07;;;5.70;57.00;;;;;;5034981;28;20381;-69
2022/03/12 00:42:20;;;;;;;13.85;6.97;;;5.70;57.10;;;;;;5034392;28;20040;-69
2022/03/12 00:44:46;;;;;;;15.07;8.05;;;5.70;57.10;;;;;;5050366;28;20045;-69
2022/03/12 00:47:12;;;;;;;15.30;6.88;;;5.70;56.90;;;;;;5048492;28;20037;-69
2022/03/12 00:49:38;;;;;;;12.75;6.78;;;5.70;56.80;;;;;;5030462;28;20052;-69
2022/03/12 00:52:04;;;;;;;12.93;7.57;;;5.70;56.70;;;;;;5020834;28;20127;-69
2022/03/12 00:54:30;;;;;;;16.17;7.38;;;5.60;57.30;;;;;;5028819;28;20068;-70
2022/03/12 00:56:56;;;;;;;11.70;7.00;;;5.60;57.00;;;;;;5024797;28;20488;-70
2022/03/12 00:59:22;;;;;;;15.30;7.43;;;5.70;57.10;;;;;;5031528;28;20421;-69
2022/03/12 01:01:48;;;;;;;12.77;7.35;;;5.70;57.80;;;;;;5046741;28;20091;-70
2022/03/12 01:04:14;;;;;;;14.27;7.05;;;5.90;57.30;;;;;;5048075;28;20114;-71
2022/03/12 01:06:42;;;;;;;12.88;7.53;;;5.60;56.80;;;;;;5028854;28;20057;-70
2022/03/12 01:09:10;;;;;;;15.70;7.70;;;5.60;56.90;;;;;;5049589;28;20053;-69
2022/03/12 01:11:38;;;;;;;15.82;7.60;;;5.60;57.10;;;;;;5066763;28;20049;-70
2022/03/12 01:14:06;;;;;;;16.48;7.50;;;5.60;57.20;;;;;;5048292;28;20040;-69
2022/03/12 01:16:33;;;;;;;14.45;7.63;;;5.60;57.00;;;;;;5029201;28;20045;-70
2022/03/12 01:18:59;;;;;;;14.68;7.60;;;5.50;57.40;;;;;;5065910;28;20115;-69
2022/03/12 01:21:25;;;;;;;14.77;7.07;;;5.50;57.20;;;;;;5045952;28;20145;-69
2022/03/12 01:23:52;;;;;;;13.38;7.32;;;5.50;57.30;;;;;;5032577;28;20036;-70
2022/03/12 01:26:19;;;;;;;16.45;7.05;;;5.60;57.10;;;;;;5029935;28;20037;-69
2022/03/12 01:28:46;;;;;;;13.20;6.90;;;5.60;57.50;;;;;;5029449;28;20354;-69
2022/03/12 01:31:13;;;;;;;14.68;7.38;;;5.60;56.90;;;;;;5045861;28;20047;-69
2022/03/12 01:33:39;;;;;;;13.68;7.35;;;5.60;57.00;;;;;;5045509;28;20041;-69
2022/03/12 01:36:06;;;;;;;16.25;7.55;;;5.60;56.60;;;;;;5046209;28;20118;-71
2022/03/12 01:38:51;;;;;;;13.60;7.30;;;5.60;56.60;;;;;;5017256;28;20549;-69
2022/03/12 01:41:21;;;;;;;12.48;6.43;;;5.60;56.30;;;;;;5032993;28;20149;-70
2022/03/12 01:43:48;;;;;;;11.88;6.97;;;5.60;56.70;;;;;;5057721;28;20178;-69
2022/03/12 01:46:14;;;;;;;13.73;7.70;;;5.60;56.30;;;;;;5050228;28;20060;-69
2022/03/12 01:48:50;;;;;;;13.73;6.85;;;5.60;56.60;;;;;;5052184;28;20095;-70
2022/03/12 01:51:17;;;;;;;12.02;7.07;;;5.50;57.40;;;;;;5044621;28;20390;-69
2022/03/12 01:53:43;;;;;;;11.27;6.72;;;5.60;56.60;;;;;;5048868;28;20044;-68
2022/03/12 01:56:10;;;;;;;14.38;7.30;;;5.60;56.70;;;;;;5023407;28;20053;-70
2022/03/12 01:58:36;;;;;;;12.48;6.97;;;5.50;57.20;;;;;;5048863;28;20389;-70
2022/03/12 02:01:03;;;;;;;12.90;6.85;;;5.50;57.20;;;;;;5050634;28;20094;-69
2022/03/12 02:03:29;;;;;;;12.35;6.53;;;5.50;57.10;;;;;;5031291;28;20079;-69
2022/03/12 02:05:59;;;;;;;12.18;6.93;;;5.50;57.10;;;;;;5052416;28;20141;-70
2022/03/12 02:08:25;;;;;;;11.77;7.00;;;5.40;57.10;;;;;;5048922;28;20160;-69
2022/03/12 02:10:57;;;;;;;13.38;7.32;;;5.40;57.10;;;;;;5036194;28;20473;-68
2022/03/12 02:13:24;;;;;;;11.38;6.70;;;5.50;57.00;;;;;;5048591;28;20086;-70
2022/03/12 02:15:58;;;;;;;13.05;7.38;;;5.40;57.00;;;;;;5051173;28;20158;-69
2022/03/12 02:18:23;;;;;;;12.60;6.75;;;5.50;56.60;;;;;;5063910;28;20061;-69
2022/03/12 02:20:49;;;;;;;12.43;6.90;;;5.40;57.20;;;;;;5045402;28;20046;-69
2022/03/12 02:23:15;;;;;;;15.07;6.78;;;5.50;56.70;;;;;;5048674;28;20064;-69
2022/03/12 02:25:41;;;;;;;11.93;6.75;;;5.40;57.10;;;;;;5051280;28;20041;-69
2022/03/12 02:28:19;;;;;;;15.48;7.28;;;5.50;56.90;;;;;;5047984;28;20040;-68
2022/03/12 02:30:51;;;;;;;12.27;7.25;;;5.40;57.40;;;;;;5046644;28;20119;-69
2022/03/12 02:33:26;;;;;;;12.65;7.15;;;5.00;57.10;;;;;;5067410;28;20048;-70
2022/03/12 02:35:53;;;;;;;15.02;7.32;;;5.40;57.00;;;;;;5017266;28;20052;-69
2022/03/12 02:38:20;;;;;;;12.73;6.70;;;5.40;57.10;;;;;;5031067;28;20040;-69
2022/03/12 02:40:48;;;;;;;13.80;7.70;;;5.30;57.70;;;;;;5035183;28;20041;-69
2022/03/12 02:43:19;;;;;;;11.75;7.05;;;5.30;57.80;;;;;;5050426;28;20041;-68
2022/03/12 02:45:48;;;;;;;11.20;6.95;;;5.20;57.80;;;;;;5032148;28;20040;-68
2022/03/12 02:48:14;;;;;;;12.23;6.43;;;5.20;57.30;;;;;;5031961;28;20107;-68
2022/03/12 02:50:42;;;;;;;12.20;7.03;;;5.20;57.60;;;;;;5050027;28;20523;-69
2022/03/12 02:53:08;;;;;;;13.82;7.53;;;5.20;57.20;;;;;;5045470;28;20036;-70
2022/03/12 02:55:36;;;;;;;12.63;6.80;;;5.20;57.50;;;;;;5048585;28;20087;-68
2022/03/12 02:58:08;;;;;;;14.73;6.40;;;5.20;57.60;;;;;;5047804;28;20053;-70
2022/03/12 03:00:37;;;;;;;16.10;6.53;;;5.20;56.90;;;;;;5048296;28;20039;-68
2022/03/12 03:03:05;;;;;;;12.68;6.35;;;5.20;57.40;;;;;;5047169;28;20430;-68
2022/03/12 03:08:03;;;;;;;11.00;6.75;;;5.20;57.60;;;;;;5065669;28;22280;-68
2022/03/12 03:10:36;;;;;;;12.35;6.85;;;5.20;57.10;;;;;;5046985;28;20550;-69
2022/03/12 03:13:16;;;;;;;11.95;6.10;;;5.10;57.60;;;;;;5046040;28;20080;-68
2022/03/12 03:15:55;;;;;;;11.47;7.53;;;5.10;57.90;;;;;;5051865;28;20483;-69
2022/03/12 03:18:24;;;;;;;11.80;6.57;;;5.10;57.30;;;;;;5046653;28;20349;-68
2022/03/12 03:20:52;;;;;;;10.20;6.50;;;5.10;57.50;;;;;;5027264;28;20049;-68
2022/03/12 03:23:22;;;;;;;10.73;6.70;;;5.10;57.70;;;;;;5066506;28;20386;-69
2022/03/12 03:25:48;;;;;;;10.70;6.30;;;5.00;57.50;;;;;;5049096;28;20063;-68
2022/03/12 03:28:14;;;;;;;11.32;6.25;;;5.00;58.10;;;;;;5048740;28;20536;-69
2022/03/12 03:30:41;;;;;;;13.98;6.80;;;5.00;57.30;;;;;;5050087;28;20094;-69
2022/03/12 03:33:18;;;;;;;11.10;6.30;;;5.00;58.10;;;;;;5063298;28;20125;-69
2022/03/12 03:35:44;;;;;;;12.35;6.25;;;5.00;58.70;;;;;;5046177;28;20037;-69
2022/03/12 03:38:11;;;;;;;11.43;6.28;;;5.00;57.70;;;;;;5065751;28;20045;-69
2022/03/12 03:40:39;;;;;;;11.38;6.72;;;5.00;57.40;;;;;;5046274;28;20052;-68
2022/03/12 03:43:13;;;;;;;10.80;6.10;;;5.00;57.70;;;;;;5065833;28;20405;-68
2022/03/12 03:45:40;;;;;;;11.05;6.20;;;5.00;58.00;;;;;;5043535;28;20064;-70
2022/03/12 03:48:12;;;;;;;11.50;6.32;;;4.90;58.20;;;;;;5048604;28;20127;-69
2022/03/12 03:50:39;;;;;;;12.20;6.30;;;4.90;58.10;;;;;;5037807;28;20044;-68
2022/03/12 03:53:05;;;;;;;12.45;6.43;;;4.90;57.90;;;;;;5049936;28;20037;-69
2022/03/12 03:55:32;;;;;;;12.23;6.38;;;4.90;58.00;;;;;;5029028;28;20048;-68
2022/03/12 03:57:59;;;;;;;11.15;6.20;;;4.80;58.10;;;;;;5054181;28;20056;-69
2022/03/12 04:00:26;;;;;;;10.85;6.40;;;5.00;58.40;;;;;;5012451;28;20048;-69
2022/03/12 04:03:01;;;;;;;12.57;6.20;;;5.50;59.10;;;;;;5049938;28;20473;-68
2022/03/12 04:05:31;;;;;;;17.80;6.40;;;5.10;58.60;;;;;;5046541;28;20116;-69
2022/03/12 04:07:59;;;;;;;11.43;5.97;;;4.80;58.40;;;;;;5025186;28;20091;-69
2022/03/12 04:10:25;;;;;;;13.07;6.10;;;4.80;58.80;;;;;;5044155;28;20151;-69
2022/03/12 04:12:51;;;;;;;9.70;5.18;;;4.80;59.00;;;;;;5030590;28;20127;-68
2022/03/12 04:15:17;;;;;;;12.77;6.30;;;4.70;58.90;;;;;;5029712;28;21480;-68
2022/03/12 04:17:45;;;;;;;11.32;6.57;;;4.70;58.70;;;;;;5072665;28;20053;-68
2022/03/12 04:20:13;;;;;;;10.40;5.95;;;4.70;58.70;;;;;;5030601;28;20044;-69
2022/03/12 04:22:39;;;;;;;11.68;6.00;;;4.70;58.70;;;;;;5031560;28;20043;-69
2022/03/12 04:25:10;;;;;;;11.90;5.97;;;4.70;58.50;;;;;;5064389;28;20811;-71
2022/03/12 04:27:38;;;;;;;10.18;5.53;;;4.70;58.40;;;;;;5048860;28;20041;-68
2022/03/12 04:30:06;;;;;;;10.07;5.90;;;4.70;59.40;;;;;;5064988;28;20084;-69
2022/03/12 04:32:32;;;;;;;11.98;6.25;;;4.70;58.30;;;;;;5033141;28;20504;-68
2022/03/12 04:34:58;;;;;;;12.55;6.40;;;4.70;58.30;;;;;;5063666;28;20136;-68
2022/03/12 04:37:24;;;;;;;11.00;5.75;;;4.60;59.40;;;;;;5027863;28;20131;-68
2022/03/12 04:39:50;;;;;;;10.93;6.45;;;4.60;58.60;;;;;;5048438;28;20123;-69
2022/03/12 04:42:21;;;;;;;13.07;6.28;;;5.10;59.60;;;;;;5047527;28;20579;-68
2022/03/12 04:44:48;;;;;;;13.13;6.38;;;4.50;58.40;;;;;;5049224;28;20041;-68
2022/03/12 04:47:17;;;;;;;11.57;6.28;;;4.50;59.10;;;;;;5047317;28;20060;-69
2022/03/12 04:49:43;;;;;;;10.10;6.18;;;4.40;59.00;;;;;;5065555;28;20045;-68
2022/03/12 04:52:11;;;;;;;13.43;6.60;;;4.40;59.00;;;;;;5048905;28;20094;-68
2022/03/12 04:54:37;;;;;;;12.00;6.05;;;4.30;59.50;;;;;;5065458;28;20481;-68
2022/03/12 04:57:04;;;;;;;11.18;5.80;;;4.20;59.80;;;;;;5047804;28;20041;-70
2022/03/12 04:59:30;;;;;;;9.95;5.65;;;4.20;59.50;;;;;;5048272;28;20084;-69
2022/03/12 05:01:57;;;;;;;11.88;6.30;;;4.10;59.60;;;;;;5047981;28;20079;-68
2022/03/12 05:04:23;;;;;;;12.73;6.28;;;4.10;60.00;;;;;;5029814;28;20053;-69
2022/03/12 05:06:49;;;;;;;9.18;5.43;;;4.00;60.90;;;;;;5047424;28;20428;-69
2022/03/12 05:09:15;;;;;;;10.48;5.50;;;3.90;60.70;;;;;;5048936;28;20042;-68
2022/03/12 05:11:41;;;;;;;13.80;6.30;;;3.90;60.40;;;;;;5053098;28;20041;-68
2022/03/12 05:14:10;;;;;;;9.70;5.50;;;3.90;60.00;;;;;;5033207;28;20044;-70
2022/03/12 05:16:36;;;;;;;11.57;6.00;;;3.90;60.40;;;;;;5047729;28;20123;-71
2022/03/12 05:19:06;;;;;;;10.88;6.05;;;3.80;60.70;;;;;;5052560;28;20533;-68
2022/03/12 05:21:33;;;;;;;15.70;6.03;;;3.80;60.90;;;;;;5050886;28;20320;-68
2022/03/12 05:23:59;;;;;;;11.65;5.90;;;3.80;61.00;;;;;;5053580;28;20037;-68
2022/03/12 05:26:25;;;;;;;9.95;5.95;;;3.80;60.90;;;;;;5034810;28;20053;-69
2022/03/12 05:28:50;;;;;;;11.82;5.47;;;3.80;60.90;;;;;;5052663;28;20043;-68
2022/03/12 05:31:17;;;;;;;9.45;5.60;;;3.70;61.00;;;;;;5051787;28;20128;-69
2022/03/12 05:33:43;;;;;;;12.07;5.88;;;3.70;60.80;;;;;;5031049;28;20239;-68
2022/03/12 05:36:09;;;;;;;9.88;5.78;;;3.70;61.30;;;;;;5032845;28;20045;-68
2022/03/12 05:38:36;;;;;;;12.10;6.07;;;3.70;60.60;;;;;;5048075;28;20045;-72
2022/03/12 05:41:09;;;;;;;10.25;5.10;;;3.60;61.50;;;;;;5038725;28;20120;-68
2022/03/12 05:43:38;;;;;;;10.30;5.78;;;3.70;61.30;;;;;;5035169;28;20370;-69
2022/03/12 05:46:05;;;;;;;11.82;5.90;;;3.60;61.90;;;;;;5066187;28;20477;-69
2022/03/12 05:48:32;;;;;;;10.70;5.90;;;3.50;62.20;;;;;;5050400;28;20049;-68
2022/03/12 05:50:58;;;;;;;11.60;5.65;;;3.60;61.40;;;;;;5035065;28;20481;-69
2022/03/12 05:53:26;;;;;;;9.50;5.22;;;3.50;61.80;;;;;;5048820;28;20041;-69
2022/03/12 05:55:53;;;;;;;10.38;5.20;;;4.40;62.70;;;;;;5049671;28;20059;-68
2022/03/12 05:58:21;;;;;;;10.48;5.70;;;3.50;61.80;;;;;;5049637;28;20477;-68
2022/03/12 06:00:48;;;;;;;11.05;5.75;;;3.50;62.10;;;;;;5066633;28;20033;-69
2022/03/12 06:03:14;;;;;;;8.77;5.18;;;3.50;61.80;;;;;;5033817;28;20173;-69
2022/03/12 06:05:43;;;;;;;11.27;6.15;;;3.50;61.60;;;;;;5066667;28;20040;-68
2022/03/12 06:08:15;;;;;;;9.57;5.57;;;3.50;62.00;;;;;;5064550;28;20052;-68
2022/03/12 06:10:46;;;;;;;12.30;5.75;;;3.50;62.10;;;;;;5031106;28;20044;-68
2022/03/12 06:13:16;;;;;;;11.65;5.85;;;3.60;61.50;;;;;;5049894;28;20040;-69
2022/03/12 06:15:43;;;;;;;11.07;5.43;;;3.50;62.30;;;;;;5034299;28;20033;-69
2022/03/12 06:18:09;;;;;;;13.25;5.75;;;3.50;62.50;;;;;;5047370;28;20559;-69
2022/03/12 06:20:37;;;;;;;10.70;5.65;;;3.50;62.40;;;;;;5056453;28;20037;-69
2022/03/12 06:23:03;;;;;;;11.05;5.75;;;3.50;62.50;;;;;;5035823;28;20048;-68
2022/03/12 06:25:30;;;;;;;11.95;5.97;;;3.40;62.80;;;;;;5050298;28;20060;-68
2022/03/12 06:27:56;;;;;;;12.07;5.88;;;3.50;62.60;;;;;;5064439;28;20068;-69
2022/03/12 06:30:24;;;;;;;8.82;5.22;;;3.50;63.10;;;;;;5045237;28;20033;-68
2022/03/12 06:32:51;;;;;;;10.93;5.20;;;3.60;62.30;;;;;;5052412;28;20067;-68
2022/03/12 06:35:18;;;;;;;9.57;5.28;;;3.80;62.30;;;;;;5066579;28;20037;-68
2022/03/12 06:37:44;;;;;;;9.32;5.32;;;3.80;62.20;;;;;;5048047;28;20664;-69
2022/03/12 06:40:14;;;;;;;9.63;5.70;;;3.90;61.60;;;;;;5050806;28;20088;-68
2022/03/12 06:42:45;;;;;;;11.23;5.72;;;4.00;62.10;;;;;;5049630;28;20068;-69
2022/03/12 06:45:15;;;;;;;11.57;5.82;;;4.10;62.20;;;;;;5063053;28;20123;-68
2022/03/12 06:47:43;;;;;;;11.07;6.10;;;4.10;61.90;;;;;;5048238;28;20037;-68
2022/03/12 06:50:13;;;;;;;10.60;5.75;;;4.20;61.10;;;;;;5049785;28;20068;-68
2022/03/12 06:52:43;;;;;;;9.60;5.73;;;4.80;61.60;;;;;;5051731;28;20055;-69
2022/03/12 06:55:10;;;;;;;10.13;5.50;;;4.70;62.70;;;;;;5048261;28;20087;-69
2022/03/12 06:57:37;;;;;;;12.15;5.90;;;4.30;61.10;;;;;;5045976;28;20048;-69
2022/03/12 07:00:11;;;;;;;8.50;5.47;;;4.30;61.40;;;;;;5034022;28;20053;-69
2022/03/12 07:02:37;;;;;;;10.20;5.63;;;4.30;60.90;;;;;;5050671;28;20041;-69
2022/03/12 07:05:03;;;;;;;11.13;5.85;;;4.40;60.70;;;;;;5051312;28;20476;-69
2022/03/12 07:07:29;;;;;;;12.25;5.68;;;4.40;61.40;;;;;;5048652;28;20587;-68
2022/03/12 07:09:55;;;;;;;10.60;5.63;;;4.40;60.90;;;;;;5049862;28;20045;-68
2022/03/12 07:12:21;;;;;;;11.55;5.68;;;4.60;61.50;;;;;;5033526;28;20045;-69
2022/03/12 07:14:47;;;;;;;8.98;5.43;;;4.50;61.50;;;;;;5050711;28;20045;-68
2022/03/12 07:17:13;;;;;;;11.15;5.60;;;4.50;61.90;;;;;;5065085;28;20049;-69
2022/03/12 07:19:39;;;;;;;10.02;5.72;;;4.50;62.10;;;;;;5021761;28;20081;-68
2022/03/12 07:22:05;;;;;;;10.80;6.00;;;4.60;61.30;;;;;;5049037;28;20057;-69
2022/03/12 07:24:32;;;;;;;10.23;5.85;;;4.60;61.50;;;;;;5050590;28;20048;-68
2022/03/12 07:26:58;;;;;;;11.27;5.55;;;4.70;60.80;;;;;;5032425;28;20052;-68
2022/03/12 07:29:26;;;;;;;11.07;5.50;;;4.80;60.70;;;;;;5048262;28;20037;-68
2022/03/12 07:31:52;;;;;;;10.65;5.97;;;4.90;60.30;;;;;;5033352;28;20568;-69
2022/03/12 07:34:19;;;;;;;10.30;5.45;;;5.00;60.20;;;;;;5032836;28;20060;-69
2022/03/12 07:36:47;;;;;;;11.30;5.93;;;5.10;59.80;;;;;;5049451;28;20150;-69
2022/03/12 07:39:13;;;;;;;10.48;5.97;;;5.20;59.80;;;;;;5042827;28;20482;-68
2022/03/12 07:41:39;;;;;;;9.85;5.68;;;5.30;59.10;;;;;;5064734;28;20037;-68
2022/03/12 07:44:07;;;;;;;13.00;5.55;;;5.40;59.60;;;;;;5049561;28;20551;-70
2022/03/12 07:46:34;;;;;;;11.20;5.97;;;5.40;59.80;;;;;;5030177;28;20105;-68
2022/03/12 07:49:00;;;;;;;9.60;5.53;;;5.50;59.10;;;;;;5064836;28;20505;-69
2022/03/12 07:51:27;;;;;;;10.80;5.78;;;6.10;59.80;;;;;;5032214;28;20053;-69
2022/03/12 07:53:53;;;;;;;11.18;6.10;;;5.60;59.40;;;;;;5033229;28;20044;-68
2022/03/12 07:56:20;;;;;;;10.45;5.93;;;5.70;59.30;;;;;;5032489;28;20051;-69
2022/03/12 07:58:46;;;;;;;11.50;6.20;;;5.60;60.10;;;;;;5046124;28;20175;-68
2022/03/12 08:01:12;;;;;;;9.38;5.50;;;5.60;59.80;;;;;;5029416;28;20140;-69
2022/03/12 08:03:38;;;;;;;9.73;5.43;;;5.60;60.40;;;;;;5042690;28;20463;-68
2022/03/12 08:06:08;;;;;;;11.63;5.70;;;5.60;60.20;;;;;;5054564;28;20049;-68
2022/03/12 08:08:34;;;;;;;12.80;6.13;;;5.60;60.70;;;;;;5032100;28;20052;-68
2022/03/12 08:13:45;;;;;;;10.20;5.90;;;5.80;60.20;;;;;;5047861;28;20072;-68
2022/03/12 08:16:15;;;;;;;8.55;5.63;;;6.10;60.80;;;;;;5049377;28;20477;-68
2022/03/12 08:18:42;;;;;;;10.73;6.45;;;6.40;60.00;;;;;;5040821;28;20044;-69
2022/03/12 08:21:10;;;;;;;10.02;6.53;;;6.30;58.90;;;;;;5045332;28;20040;-68
2022/03/12 08:23:37;;;;;;;11.45;6.47;;;6.70;59.00;;;;;;5029940;28;20047;-71
2022/03/12 08:26:03;;;;;;;11.32;6.00;;;6.90;58.10;;;;;;5050208;28;20037;-70
2022/03/12 08:28:32;;;;;;;12.45;6.43;;;7.10;59.30;;;;;;5066040;28;20473;-69
2022/03/12 08:30:58;;;;;;;12.65;6.43;;;7.30;58.50;;;;;;5064632;28;20572;-69
2022/03/12 08:33:24;;;;;;;11.45;6.80;;;7.40;57.60;;;;;;5023773;28;20058;-69
2022/03/12 08:35:50;;;;;;;11.45;6.75;;;7.70;58.90;;;;;;5067575;28;20037;-69
2022/03/12 08:38:16;;;;;;;13.63;6.75;;;7.90;58.50;;;;;;5068058;28;20445;-69
2022/03/12 08:40:42;;;;;;;14.10;6.60;;;8.10;58.00;;;;;;5040884;28;20069;-69
2022/03/12 08:43:08;;;;;;;10.95;6.32;;;8.10;57.20;;;;;;5042244;28;20040;-69
2022/03/12 08:45:34;;;;;;;14.85;7.10;;;8.20;58.70;;;;;;5059093;28;20123;-69
2022/03/12 08:48:00;;;;;;;13.07;7.32;;;8.20;58.20;;;;;;5050549;28;20056;-69
2022/03/12 08:50:26;;;;;;;11.45;6.75;;;8.30;58.10;;;;;;5033019;28;20053;-69
2022/03/12 08:52:52;;;;;;;11.52;6.45;;;8.30;57.90;;;;;;5027382;28;20041;-69
2022/03/12 08:55:18;;;;;;;13.85;7.00;;;8.40;57.90;;;;;;5033850;28;20048;-69
2022/03/12 08:57:44;;;;;;;14.65;7.22;;;8.40;58.10;;;;;;5049903;28;20106;-69
2022/03/12 09:00:12;;;;;;;12.82;6.68;;;8.60;58.40;;;;;;5048286;28;20095;-69
2022/03/12 09:02:39;;;;;;;11.80;6.95;;;8.70;56.90;;;;;;5053886;28;20488;-69
2022/03/12 09:05:07;;;;;;;12.35;7.18;;;8.80;57.50;;;;;;5048528;28;20041;-70
2022/03/12 09:07:34;;;;;;;14.23;7.28;;;8.90;58.20;;;;;;5052446;28;20414;-69
2022/03/12 09:10:00;;;;;;;11.98;6.75;;;9.20;58.30;;;;;;5063842;28;20513;-69
2022/03/12 09:12:25;;;;;;;11.63;7.30;;;9.40;58.80;;;;;;5068879;28;20044;-70
2022/03/12 09:14:52;;;;;;;12.90;7.53;;;9.50;57.70;;;;;;5049401;28;20041;-69
2022/03/12 09:17:18;;;;;;;13.32;7.13;;;9.80;58.60;;;;;;5043399;28;20125;-70
2022/03/12 09:19:44;;;;;;;12.98;7.70;;;9.90;58.10;;;;;;5032970;28;20135;-70
2022/03/12 09:22:10;;;;;;;13.20;7.35;;;10.00;56.80;;;;;;5067434;28;20040;-69
2022/03/12 09:24:38;;;;;;;11.50;7.38;;;10.20;57.80;;;;;;5033129;28;20053;-69
2022/03/12 09:27:05;;;;;;;14.52;7.82;;;10.40;59.10;;;;;;5080044;28;20487;-69
2022/03/12 09:29:35;;;;;;;12.73;7.60;;;10.50;57.50;;;;;;5047647;28;20045;-70
2022/03/12 09:32:04;;;;;;;13.20;7.97;;;10.60;57.60;;;;;;5041177;28;20056;-69
2022/03/12 09:34:30;;;;;;;13.95;7.65;;;10.70;57.80;;;;;;5036725;28;20044;-72
2022/03/12 09:36:56;;;;;;;14.02;8.10;;;10.70;57.80;;;;;;5062733;28;20433;-72
2022/03/12 09:39:22;;;;;;;11.48;8.00;;;10.80;58.70;;;;;;5031406;28;20136;-73
2022/03/12 09:41:49;;;;;;;14.73;8.23;;;10.90;57.70;;;;;;5051908;28;20048;-73
2022/03/12 09:44:15;;;;;;;17.45;7.53;;;10.90;57.20;;;;;;5069494;28;20071;-71
2022/03/12 09:46:41;;;;;;;13.10;7.55;;;10.90;57.20;;;;;;5053126;28;20072;-72
2022/03/12 09:49:11;;;;;;;12.70;7.78;;;11.00;58.30;;;;;;5069152;28;20487;-72
2022/03/12 09:51:37;;;;;;;13.75;8.25;;;11.20;58.10;;;;;;5022555;28;20045;-71
2022/03/12 09:54:04;;;;;;;12.65;7.97;;;11.40;59.00;;;;;;5049389;28;20102;-70
2022/03/12 09:56:30;;;;;;;13.38;8.25;;;11.50;58.10;;;;;;5043874;28;20072;-71
2022/03/12 09:58:57;;;;;;;17.10;8.43;;;11.60;59.30;;;;;;5072201;28;20056;-76
2022/03/12 10:01:23;;;;;;;14.18;8.02;;;11.60;59.20;;;;;;5090257;28;20078;-68
2022/03/12 10:03:49;;;;;;;12.63;7.85;;;11.70;58.00;;;;;;5092686;28;20107;-69
2022/03/12 10:06:15;;;;;;;15.05;8.45;;;11.60;58.90;;;;;;5045132;28;20053;-69
2022/03/12 10:08:45;;;;;;;12.35;7.68;;;11.80;59.70;;;;;;5075008;28;20048;-69
2022/03/12 10:11:11;;;;;;;15.93;9.00;;;11.80;59.30;;;;;;5067898;28;20090;-68
2022/03/12 10:13:37;;;;;;;12.02;7.78;;;11.90;60.00;;;;;;5038331;28;20052;-69
2022/03/12 10:16:04;;;;;;;12.35;7.75;;;12.00;60.30;;;;;;5068887;28;20051;-69
2022/03/12 10:18:30;;;;;;;12.60;8.35;;;12.10;60.10;;;;;;5073356;28;20055;-68
2022/03/12 10:20:57;;;;;;;14.35;8.27;;;12.30;61.20;;;;;;5073003;28;20056;-69
2022/03/12 10:23:23;;;;;;;14.32;8.13;;;12.60;61.30;;;;;;5055337;28;20054;-69
2022/03/12 10:25:50;;;;;;;13.93;8.55;;;12.70;61.10;;;;;;5056178;28;20074;-69
2022/03/12 10:28:16;;;;;;;11.60;7.93;;;12.80;61.40;;;;;;5056294;28;20048;-69
2022/03/12 10:30:42;;;;;;;14.15;8.13;;;12.90;62.10;;;;;;5056360;28;20045;-68
2022/03/12 10:33:08;;;;;;;14.15;8.30;;;13.00;62.00;;;;;;5078219;28;20043;-68
2022/03/12 10:35:36;;;;;;;14.68;8.10;;;13.00;62.20;;;;;;5093194;28;20047;-68
2022/03/12 10:38:11;;;;;;;12.00;8.05;;;13.30;62.90;;;;;;5041999;28;20044;-69
2022/03/12 10:40:37;;;;;;;12.85;8.70;;;13.30;63.40;;;;;;5056365;28;20047;-68
2022/03/12 10:43:12;;;;;;;13.68;8.77;;;13.40;63.90;;;;;;5072281;28;20040;-70
2022/03/12 10:45:47;;;;;;;14.27;8.50;;;13.50;64.60;;;;;;5072886;28;20040;-69
2022/03/12 10:48:19;;;;;;;13.73;8.35;;;13.70;63.90;;;;;;5070796;28;20520;-69
2022/03/12 10:50:47;;;;;;;13.10;8.60;;;13.60;64.20;;;;;;5070355;28;20048;-69
2022/03/12 10:53:15;;;;;;;14.10;8.45;;;13.80;64.50;;;;;;5088203;28;20040;-68
2022/03/12 10:55:48;;;;;;;13.98;8.88;;;14.00;64.00;;;;;;5039380;28;20041;-68
2022/03/12 10:58:19;;;;;;;12.43;8.40;;;14.20;64.30;;;;;;5055461;28;20565;-68
2022/03/12 11:00:51;;;;;;;13.15;8.65;;;14.10;63.90;;;;;;5071583;28;20101;-68
2022/03/12 11:03:20;;;;;;;15.45;9.20;;;14.10;63.40;;;;;;5089091;28;20045;-69
2022/03/12 11:05:49;;;;;;;12.73;8.63;;;14.10;64.40;;;;;;5089271;28;20439;-68
2022/03/12 11:08:29;;;;;;;15.73;8.48;;;14.20;65.90;;;;;;5088683;28;20090;-69
2022/03/12 11:10:58;;;;;;;12.77;8.68;;;14.40;64.60;;;;;;5071858;28;20433;-68
2022/03/12 11:13:41;;;;;;;12.75;8.48;;;14.40;64.70;;;;;;5089263;28;20066;-70
2022/03/12 11:16:12;;;;;;;14.45;9.73;;;14.40;64.20;;;;;;5075896;28;20044;-69
2022/03/12 11:18:48;;;;;;;;;;;14.50;64.80;;;;;;5110224;28;20119;-68
2022/03/12 11:21:36;;;;;;;13.13;8.93;;;14.60;64.20;;;;;;5077389;28;19943;-68
2022/03/12 11:24:05;;;;;;;14.02;8.82;;;14.80;65.70;;;;;;5088870;28;20051;-69
2022/03/12 11:26:51;;;;;;;12.18;8.68;;;14.90;64.20;;;;;;5060083;28;20198;-68
2022/03/12 11:29:21;;;;;;;14.35;8.95;;;14.90;65.70;;;;;;5054186;28;20067;-68
2022/03/12 11:31:48;;;;;;;13.45;8.85;;;15.00;64.80;;;;;;5088673;28;20051;-69
2022/03/12 11:34:15;;;;;;;12.63;8.35;;;15.00;66.40;;;;;;5071527;28;20045;-69
2022/03/12 11:36:45;;;;;;;14.50;9.02;;;15.10;67.60;;;;;;5088916;28;20115;-68
2022/03/12 11:39:18;;;;;;;13.45;8.70;;;15.20;66.10;;;;;;5071929;28;20052;-69
2022/03/12 11:42:12;;;;;;;15.05;8.60;;;15.00;65.90;;;;;;5071217;28;20036;-70
2022/03/12 11:44:46;;;;;;;12.00;8.10;;;14.70;65.30;;;;;;5054224;28;20120;-69
2022/03/12 11:47:23;;;;;;;11.73;8.27;;;14.90;67.40;;;;;;5073560;28;20052;-69
2022/03/12 11:49:50;;;;;;;12.63;8.82;;;14.80;68.00;;;;;;5091746;28;20114;-69
2022/03/12 11:52:17;;;;;;;12.32;8.23;;;14.80;68.10;;;;;;5083329;28;20110;-68
2022/03/12 11:54:45;;;;;;;12.60;8.15;;;15.00;68.10;;;;;;5054830;28;20483;-69
2022/03/12 11:57:27;;;;;;;13.38;8.20;;;15.00;67.90;;;;;;5089022;28;20054;-69
2022/03/12 11:59:54;;;;;;;13.82;8.50;;;15.20;67.20;;;;;;5074600;28;20446;-69
2022/03/12 12:02:20;;;;;;;12.73;8.90;;;15.50;67.20;;;;;;5091815;28;20051;-70
2022/03/12 12:04:53;;;;;;;14.23;8.50;;;15.80;66.50;;;;;;5061512;28;20484;-70
2022/03/12 12:07:25;;;;;;;11.77;9.05;;;16.30;67.30;;;;;;5054467;28;20040;-71
2022/03/12 12:09:52;;;;;;;13.27;9.43;;;16.40;64.90;;;;;;5049870;28;20043;-69
2022/03/12 12:12:27;;;;;;;12.52;8.45;;;16.60;66.40;;;;;;5054478;28;20044;-70
2022/03/12 12:14:57;;;;;;;13.35;8.82;;;16.50;65.80;;;;;;5073041;28;20058;-70
2022/03/12 12:17:24;;;;;;;11.07;8.90;;;16.20;65.60;;;;;;5058372;28;20119;-71
2022/03/12 12:19:50;;;;;;;13.20;8.35;;;16.50;66.80;;;;;;5090750;28;20043;-68
2022/03/12 12:22:18;;;;;;;12.98;9.25;;;16.40;66.10;;;;;;5063127;28;20052;-70
2022/03/12 12:24:54;;;;;;;17.10;9.35;;;16.60;66.80;;;;;;5054484;28;20040;-70
2022/03/12 12:27:23;;;;;;;13.85;9.23;;;17.00;66.10;;;;;;5030408;28;20055;-67
2022/03/12 12:29:54;;;;;;;17.25;9.63;;;17.30;65.70;;;;;;5071071;28;20049;-68
2022/03/12 12:32:27;;;;;;;11.55;8.23;;;17.50;62.80;;;;;;5070877;28;20033;-67
2022/03/12 12:35:02;;;;;;;12.82;9.65;;;17.70;63.90;;;;;;5086526;28;20109;-68
2022/03/12 12:37:58;;;;;;;12.95;8.70;;;17.80;63.70;;;;;;5070362;28;20045;-68
2022/03/12 12:40:41;;;;;;;11.05;8.55;;;17.80;62.30;;;;;;5070706;28;20052;-69
2022/03/12 12:43:09;;;;;;;11.65;8.13;;;17.40;63.40;;;;;;5053863;28;20051;-68
2022/03/12 12:46:05;;;;;;;11.43;8.38;;;17.10;63.70;;;;;;5085931;28;20036;-70
2022/03/12 12:48:42;;;;;;;13.32;8.13;;;16.90;65.50;;;;;;5063540;28;20056;-69
2022/03/12 12:51:22;;;;;;;10.65;7.18;;;17.00;65.90;;;;;;5050051;28;20040;-69
2022/03/12 12:53:57;;;;;;;8.95;6.75;;;16.40;65.70;;;;;;5086748;28;20063;-70
2022/03/12 12:56:33;;;;;;;8.65;6.57;;;16.10;66.00;;;;;;5070182;28;20135;-69